Observations

BIA Manual Entry


Date Temp Humidity Rainfall Dew Point Wind Direction Wind Speed Wind Pressure Condition Visibility
2025-06-04 12:58:59 28 74 0 23 190 17.1 1011 Cloudy 20 KM
2025-06-04 12:00:14 29 73 0 24 200 24.7 1012 Distant showers 15 KM
2025-06-04 11:01:17 28 79 0 24 190 17.1 1013 Distant showers 10 KM
2025-06-04 10:00:11 27 82 24 190 15.2 1013 Shower Day 10 KM
2025-06-04 09:00:33 25 91 24 180 7.6 1013 Thundershowers 09 KM
2025-06-04 09:00:04 25 91 180 7 Partly Cloudy (Night)
2025-06-04 08:03:38 25 92 23 250 20.9 1013 Thundershowers 04 KM
2025-06-04 07:00:23 27 90 25 190 9.5 1011 Thunderstorm 15 KM
2025-06-04 05:58:25 26 91 25 180 3.8 1010 Partly Cloudy (Day) 10 KM
2025-06-04 04:58:27 27 90 25 190 7.6 1011 Partly Cloudy (Night) 10 KM
2025-06-04 03:57:04 26 93 25 220 5.7 1010 Partly Cloudy (Night) 10 KM
2025-06-04 02:59:36 27 91 25 240 3.8 1010 Partly Cloudy (Night) 10 KM
2025-06-04 02:00:33 27 90 0.00 25 220 3.8 1010 Partly Cloudy (Night) 10KM
2025-06-04 01:00:24 27 90 0.00 25 140 1.9 1011 Partly Cloudy (Night) 10KM
2025-06-04 00:00:37 28 86 0.00 25 170 3.8 1012 Partly Cloudy (Night) 10KM
2025-06-03 23:02:30 29 81 0.00 25 210 3.8 1012 Partly Cloudy (Night) 10KM
2025-06-03 21:59:06 29 76 0.00 24 250 3.8 1011 Partly Cloudy (Night) 10KM
2025-06-03 20:59:47 29 76 0.0 25 300 7.6 1011 Partly Cloudy (Night) 10 KM
2025-06-03 20:00:06 30 74 0.0 25 300 3.8 1010 Partly Cloudy (Night) 10 KM
2025-06-03 18:57:50 30 74 0.0 25 320 5.7 1009 Partly Cloudy (Night) 10 KM
2025-06-03 17:58:22 31 66 0.0 24 300 7.6 1009 Partly Cloudy (Night) 10 KM
2025-06-03 17:01:10 31 63 24 310 9.5 1008 Partly Cloudy (Day) 10 KM
2025-06-03 16:00:11 33 61 0.0 25 300 13.3 1008 Partly Cloudy (Day) 10 KM
2025-06-03 15:01:52 33 60 24 330 19.0 1008 Partly Cloudy (Day) 20 KM
2025-06-03 14:03:43 33 57 23 320 13.3 1009 Distant showers 10 KM